Time;durP1;ratioP1;P1;durP2;ratioP2;P2;SDS_P1;SDS_P2;PMS_P1;PMS_P2;Temp;Humidity;BMP_temperature;BMP_pressure;BME280_temperature;BME280_humidity;BME280_pressure;Samples;Min_cycle;Max_cycle;Signal;HPM_P1;HPM_P2
2022/08/03 00:01:28;;;;;;;4.47;0.93;;;19.00;99.90;;;;;;5066545;28;20051;-72
2022/08/03 00:03:54;;;;;;;6.13;1.30;;;19.00;99.90;;;;;;5058584;28;20080;-72
2022/08/03 00:06:20;;;;;;;6.07;1.08;;;18.90;99.90;;;;;;5061280;28;20033;-72
2022/08/03 00:08:45;;;;;;;5.82;0.95;;;18.90;99.90;;;;;;5059348;28;20041;-72
2022/08/03 00:11:11;;;;;;;6.35;1.20;;;18.90;99.90;;;;;;5062780;28;20071;-72
2022/08/03 00:13:37;;;;;;;6.50;1.23;;;18.90;99.90;;;;;;5062670;28;20036;-72
2022/08/03 00:16:03;;;;;;;5.60;1.25;;;18.90;99.90;;;;;;5065269;28;20075;-72
2022/08/03 00:18:28;;;;;;;4.70;0.93;;;18.90;99.90;;;;;;5067532;28;20044;-72
2022/08/03 00:20:54;;;;;;;5.75;1.40;;;18.90;99.90;;;;;;5062002;28;20039;-72
2022/08/03 00:23:20;;;;;;;5.05;1.15;;;18.90;99.90;;;;;;5057807;28;20105;-72
2022/08/03 00:25:45;;;;;;;4.40;1.10;;;18.90;99.90;;;;;;5059686;28;20037;-72
2022/08/03 00:28:11;;;;;;;4.90;1.13;;;18.90;99.90;;;;;;5065110;28;20024;-72
2022/08/03 00:30:37;;;;;;;4.70;1.02;;;18.80;99.90;;;;;;5064337;28;20135;-73
2022/08/03 00:33:03;;;;;;;3.78;1.05;;;18.80;99.90;;;;;;5064492;28;20044;-73
2022/08/03 00:35:29;;;;;;;4.32;0.85;;;18.80;99.90;;;;;;5061382;28;20068;-71
2022/08/03 00:37:55;;;;;;;6.95;1.20;;;18.80;99.90;;;;;;5063266;28;20500;-71
2022/08/03 00:40:21;;;;;;;4.93;1.10;;;18.80;99.90;;;;;;5057489;28;20096;-72
2022/08/03 00:42:52;;;;;;;5.35;1.20;;;18.80;99.90;;;;;;5062079;28;20436;-72
2022/08/03 00:45:20;;;;;;;6.05;1.25;;;18.80;99.90;;;;;;5056981;28;20600;-72
2022/08/03 00:47:46;;;;;;;5.55;0.75;;;18.70;99.90;;;;;;5042326;28;20043;-72
2022/08/03 00:50:12;;;;;;;6.35;1.33;;;18.70;99.90;;;;;;5053713;28;20424;-72
2022/08/03 00:52:39;;;;;;;3.90;1.13;;;18.70;99.90;;;;;;5061118;28;20095;-72
2022/08/03 00:55:05;;;;;;;3.40;1.13;;;18.70;99.90;;;;;;5060067;28;20051;-72
2022/08/03 00:57:31;;;;;;;3.42;0.98;;;18.70;99.90;;;;;;5063202;28;20429;-71
2022/08/03 00:59:58;;;;;;;4.72;1.08;;;18.60;99.90;;;;;;5044862;28;20142;-72
2022/08/03 01:02:26;;;;;;;4.22;1.05;;;18.60;99.90;;;;;;5063120;28;20052;-72
2022/08/03 01:04:52;;;;;;;8.88;1.42;;;18.60;99.90;;;;;;5062224;28;20041;-72
2022/08/03 01:07:41;;;;;;;5.68;1.30;;;18.50;99.90;;;;;;5053761;28;20033;-72
2022/08/03 01:10:39;;;;;;;4.03;1.10;;;18.50;99.90;;;;;;5060559;28;20037;-72
2022/08/03 01:13:21;;;;;;;3.25;1.40;;;18.50;99.90;;;;;;5040527;28;20080;-72
2022/08/03 01:16:01;;;;;;;6.65;2.08;;;18.40;99.90;;;;;;5058824;28;20120;-72
2022/08/03 01:18:51;;;;;;;6.07;1.63;;;18.40;99.90;;;;;;5064345;28;20119;-72
2022/08/03 01:21:26;;;;;;;7.30;1.67;;;18.40;99.90;;;;;;5044226;28;20123;-71
2022/08/03 01:24:05;;;;;;;4.80;1.55;;;18.30;99.90;;;;;;5061819;28;20495;-71
2022/08/03 01:27:06;;;;;;;9.30;1.60;;;18.30;99.90;;;;;;5058888;28;20056;-72
2022/08/03 01:29:50;;;;;;;6.10;1.52;;;18.30;99.90;;;;;;5057229;28;20037;-72
2022/08/03 01:32:20;;;;;;;5.15;1.63;;;18.20;99.90;;;;;;5047506;28;20041;-72
2022/08/03 01:34:51;;;;;;;4.38;1.50;;;18.20;99.90;;;;;;5057057;28;20040;-72
2022/08/03 01:37:23;;;;;;;5.97;1.77;;;18.10;99.90;;;;;;5055823;28;20557;-72
2022/08/03 01:39:53;;;;;;;6.28;2.20;;;18.20;99.90;;;;;;5058940;28;20150;-72
2022/08/03 01:42:20;;;;;;;8.10;1.98;;;18.10;99.90;;;;;;5060580;28;20524;-72
2022/08/03 01:44:47;;;;;;;5.53;1.92;;;18.10;99.90;;;;;;5059621;28;20079;-72
2022/08/03 01:47:15;;;;;;;8.20;1.70;;;18.10;99.90;;;;;;5060800;28;20444;-72
2022/08/03 01:49:44;;;;;;;6.65;2.20;;;18.10;99.90;;;;;;5047749;28;20058;-72
2022/08/03 01:52:11;;;;;;;6.20;1.67;;;18.00;99.90;;;;;;5057882;28;20064;-71
2022/08/03 01:54:41;;;;;;;6.38;2.33;;;18.00;99.90;;;;;;5056416;28;20037;-71
2022/08/03 01:57:09;;;;;;;9.38;2.00;;;18.00;99.90;;;;;;5061893;28;20085;-71
2022/08/03 01:59:37;;;;;;;7.43;2.03;;;17.90;99.90;;;;;;5051365;28;20414;-71
2022/08/03 02:02:06;;;;;;;6.05;2.10;;;17.90;99.90;;;;;;5038093;28;20048;-72
2022/08/03 02:04:33;;;;;;;5.70;1.75;;;17.90;99.90;;;;;;5055203;28;20113;-71
2022/08/03 02:07:01;;;;;;;12.10;2.40;;;17.90;99.90;;;;;;5062253;28;20184;-71
2022/08/03 02:09:29;;;;;;;10.27;1.95;;;17.90;99.90;;;;;;5044283;28;20110;-71
2022/08/03 02:11:56;;;;;;;8.70;1.90;;;17.90;99.90;;;;;;5060446;28;20607;-73
2022/08/03 02:14:23;;;;;;;8.32;1.90;;;17.80;99.90;;;;;;5056826;28;20457;-73
2022/08/03 02:16:50;;;;;;;6.13;2.22;;;17.80;99.90;;;;;;5050174;28;20040;-72
2022/08/03 02:19:17;;;;;;;4.80;1.95;;;17.80;99.90;;;;;;5064475;28;20040;-71
2022/08/03 02:21:45;;;;;;;5.47;2.47;;;17.80;99.90;;;;;;5061889;28;20420;-72
2022/08/03 02:24:11;;;;;;;8.20;2.30;;;17.80;99.90;;;;;;5054084;28;20049;-72
2022/08/03 02:26:38;;;;;;;6.95;1.90;;;17.80;99.90;;;;;;5061573;28;20362;-72
2022/08/03 02:29:14;;;;;;;6.07;1.63;;;17.80;99.90;;;;;;5041778;28;20496;-72
2022/08/03 02:31:42;;;;;;;6.25;2.00;;;17.80;99.90;;;;;;5064695;28;20453;-72
2022/08/03 02:34:12;;;;;;;6.43;1.77;;;17.80;99.90;;;;;;5065028;28;20044;-72
2022/08/03 02:36:39;;;;;;;6.20;2.13;;;17.70;99.90;;;;;;5067761;28;20374;-72
2022/08/03 02:39:08;;;;;;;7.25;2.72;;;17.70;99.90;;;;;;5049092;28;20056;-72
2022/08/03 02:41:45;;;;;;;10.15;2.03;;;17.70;99.90;;;;;;5062959;28;20040;-72
2022/08/03 02:44:12;;;;;;;8.10;1.83;;;17.70;99.90;;;;;;5058307;28;20156;-72
2022/08/03 02:46:43;;;;;;;7.03;2.20;;;17.70;99.90;;;;;;5061652;28;20393;-72
2022/08/03 02:49:10;;;;;;;7.50;2.13;;;17.70;99.90;;;;;;5056016;28;20123;-71
2022/08/03 02:51:38;;;;;;;6.03;2.08;;;17.70;99.90;;;;;;5063743;28;20050;-71
2022/08/03 02:54:05;;;;;;;5.43;2.03;;;17.70;99.90;;;;;;5057963;28;20060;-71
2022/08/03 02:56:31;;;;;;;6.80;2.50;;;17.70;99.90;;;;;;5063985;28;20071;-71
2022/08/03 02:58:58;;;;;;;5.95;2.10;;;17.60;99.90;;;;;;5061741;28;20186;-71
2022/08/03 03:01:27;;;;;;;8.18;2.65;;;17.60;99.90;;;;;;5064344;28;20036;-71
2022/08/03 03:03:56;;;;;;;5.65;2.08;;;17.70;99.90;;;;;;5048598;28;20158;-71
2022/08/03 03:06:24;;;;;;;4.50;2.05;;;17.60;99.90;;;;;;5065125;28;20072;-72
2022/08/03 03:08:51;;;;;;;11.10;2.40;;;17.60;99.90;;;;;;5066162;28;20044;-72
2022/08/03 03:11:18;;;;;;;6.03;2.50;;;17.60;99.90;;;;;;5037913;28;20060;-73
2022/08/03 03:13:46;;;;;;;5.13;2.10;;;17.60;99.90;;;;;;5060557;28;20082;-73
2022/08/03 03:16:13;;;;;;;5.85;2.15;;;17.60;99.90;;;;;;5067240;28;20131;-73
2022/08/03 03:18:40;;;;;;;6.55;2.38;;;17.60;99.90;;;;;;5065967;28;20526;-73
2022/08/03 03:21:08;;;;;;;7.68;2.90;;;17.60;99.90;;;;;;5062597;28;20045;-73
2022/08/03 03:23:40;;;;;;;3.92;1.83;;;17.50;99.90;;;;;;5045335;28;20403;-73
2022/08/03 03:26:07;;;;;;;6.30;2.13;;;17.50;99.90;;;;;;5051545;28;20068;-73
2022/08/03 03:28:35;;;;;;;5.88;2.33;;;17.50;99.90;;;;;;5061686;28;20095;-73
2022/08/03 03:31:02;;;;;;;9.35;2.35;;;17.40;99.90;;;;;;5055205;28;20106;-73
2022/08/03 03:33:28;;;;;;;8.52;2.30;;;17.50;99.90;;;;;;5056417;28;20128;-73
2022/08/03 03:35:56;;;;;;;4.90;2.15;;;17.40;99.90;;;;;;5055791;28;20144;-73
2022/08/03 03:38:22;;;;;;;7.32;2.40;;;17.50;99.90;;;;;;5065140;28;20045;-71
2022/08/03 03:40:48;;;;;;;4.82;2.17;;;17.40;99.90;;;;;;5061038;28;20098;-71
2022/08/03 03:43:13;;;;;;;6.72;2.67;;;17.40;99.90;;;;;;5047131;28;20052;-71
2022/08/03 03:45:42;;;;;;;7.18;2.55;;;17.40;99.90;;;;;;5059231;28;20036;-71
2022/08/03 03:48:08;;;;;;;5.03;2.22;;;17.40;99.90;;;;;;5062485;28;20075;-71
2022/08/03 03:50:36;;;;;;;8.48;2.88;;;17.40;99.90;;;;;;5062688;28;20665;-71
2022/08/03 03:53:02;;;;;;;8.07;2.47;;;17.40;99.90;;;;;;5059192;28;20084;-71
2022/08/03 03:55:29;;;;;;;7.43;2.15;;;17.40;99.90;;;;;;5064084;28;20045;-72
2022/08/03 03:57:55;;;;;;;8.82;2.75;;;17.40;99.90;;;;;;5037881;28;20128;-71
2022/08/03 04:00:21;;;;;;;5.55;2.17;;;17.40;99.90;;;;;;5062594;28;20067;-71
2022/08/03 04:02:47;;;;;;;10.57;2.58;;;17.40;99.90;;;;;;5063222;28;20072;-71
2022/08/03 04:11:02;;;;;;;5.78;2.38;;;17.40;99.90;;;;;;5062904;28;20093;-71
2022/08/03 04:13:38;;;;;;;10.10;2.45;;;17.40;99.90;;;;;;5061412;28;20041;-71
2022/08/03 04:16:06;;;;;;;6.43;2.63;;;17.40;99.90;;;;;;5061517;28;20048;-71
2022/08/03 04:18:36;;;;;;;7.00;2.33;;;17.40;99.90;;;;;;5056406;28;20032;-71
2022/08/03 04:21:04;;;;;;;7.45;2.42;;;17.30;99.90;;;;;;5061016;28;20115;-71
2022/08/03 04:23:34;;;;;;;9.05;2.70;;;17.40;99.90;;;;;;5059617;28;20045;-72
2022/08/03 04:26:02;;;;;;;8.13;2.72;;;17.40;99.90;;;;;;5059012;28;20047;-72
2022/08/03 04:28:29;;;;;;;4.88;1.90;;;17.40;99.90;;;;;;5057571;28;20039;-72
2022/08/03 04:30:56;;;;;;;9.65;2.53;;;17.40;99.90;;;;;;5063263;28;20060;-72
2022/08/03 04:33:25;;;;;;;10.25;2.90;;;17.40;99.90;;;;;;5059201;28;20095;-71
2022/08/03 04:35:54;;;;;;;6.32;2.83;;;17.40;99.90;;;;;;5062060;28;20225;-71
2022/08/03 04:38:22;;;;;;;5.78;2.15;;;17.40;99.90;;;;;;5041290;28;20048;-72
2022/08/03 04:40:48;;;;;;;9.45;2.65;;;17.40;99.90;;;;;;5063929;28;20044;-72
2022/08/03 04:43:17;;;;;;;9.20;2.75;;;17.40;99.90;;;;;;5056796;28;20037;-72
2022/08/03 04:45:45;;;;;;;9.48;2.75;;;17.50;99.90;;;;;;5057245;28;20040;-72
2022/08/03 04:48:14;;;;;;;6.10;2.70;;;17.50;99.90;;;;;;5053993;28;20071;-72
2022/08/03 04:50:40;;;;;;;8.93;2.72;;;17.60;99.90;;;;;;5044856;28;20083;-72
2022/08/03 04:53:06;;;;;;;8.00;2.78;;;17.60;99.90;;;;;;5055695;28;20394;-72
2022/08/03 04:55:34;;;;;;;8.15;2.70;;;17.70;99.90;;;;;;5044581;28;20071;-72
2022/08/03 04:58:00;;;;;;;11.15;3.15;;;17.80;99.90;;;;;;5061019;28;20047;-72
2022/08/03 05:00:26;;;;;;;7.20;2.90;;;17.90;99.90;;;;;;5061621;28;20040;-71
2022/08/03 05:02:54;;;;;;;7.35;2.80;;;18.00;99.90;;;;;;5061546;28;20070;-72
2022/08/03 05:05:21;;;;;;;10.05;2.78;;;18.00;99.90;;;;;;5064509;28;20128;-71
2022/08/03 05:07:47;;;;;;;9.50;3.38;;;18.10;99.90;;;;;;5060777;28;20032;-72
2022/08/03 05:10:13;;;;;;;6.00;2.83;;;18.20;99.90;;;;;;5065204;28;20467;-72
2022/08/03 05:12:39;;;;;;;8.43;2.78;;;18.30;99.90;;;;;;5057901;28;20044;-72
2022/08/03 05:15:06;;;;;;;8.27;3.05;;;18.40;99.90;;;;;;5053376;28;20109;-72
2022/08/03 05:17:32;;;;;;;8.70;2.53;;;18.50;99.90;;;;;;5062204;28;20132;-72
2022/08/03 05:19:59;;;;;;;7.90;2.72;;;18.60;99.90;;;;;;5058398;28;20452;-71
2022/08/03 05:22:25;;;;;;;8.52;2.83;;;18.70;99.90;;;;;;5062150;28;20405;-72
2022/08/03 05:24:50;;;;;;;10.32;2.97;;;18.80;99.90;;;;;;5057879;28;20117;-72
2022/08/03 05:27:18;;;;;;;8.60;2.70;;;19.00;99.90;;;;;;5057591;28;20067;-72
2022/08/03 05:29:48;;;;;;;9.05;3.58;;;19.10;99.90;;;;;;5044333;28;20033;-72
2022/08/03 05:32:14;;;;;;;11.10;3.35;;;19.30;99.90;;;;;;5056075;28;20047;-72
2022/08/03 05:34:40;;;;;;;9.43;2.90;;;19.40;99.90;;;;;;5051211;28;20186;-71
2022/08/03 05:37:06;;;;;;;10.88;3.25;;;19.60;99.90;;;;;;5057113;28;20132;-72
2022/08/03 05:39:32;;;;;;;9.73;2.85;;;19.60;99.90;;;;;;5056131;28;20045;-72
2022/08/03 05:41:58;;;;;;;9.15;3.00;;;19.70;99.90;;;;;;5044211;28;20089;-71
2022/08/03 05:44:24;;;;;;;7.28;2.97;;;19.90;99.90;;;;;;5057821;28;20119;-71
2022/08/03 05:46:50;;;;;;;6.20;2.92;;;19.90;99.90;;;;;;5063679;28;20159;-71
2022/08/03 05:49:17;;;;;;;8.82;2.75;;;20.00;99.90;;;;;;5062305;28;20037;-71
2022/08/03 05:51:43;;;;;;;9.15;2.65;;;20.10;99.90;;;;;;5058094;28;20540;-71
2022/08/03 05:54:08;;;;;;;7.10;2.60;;;20.20;99.90;;;;;;5067218;28;20183;-72
2022/08/03 05:56:34;;;;;;;9.38;3.10;;;20.40;99.90;;;;;;5070449;28;20369;-71
2022/08/03 05:59:00;;;;;;;9.60;2.80;;;20.40;99.90;;;;;;5050406;28;20063;-72
2022/08/03 06:01:26;;;;;;;14.00;2.97;;;20.60;99.90;;;;;;5055929;28;20539;-72
2022/08/03 06:03:51;;;;;;;11.90;3.10;;;20.70;99.90;;;;;;5067435;28;20045;-73
2022/08/03 06:06:18;;;;;;;10.25;2.65;;;20.80;99.90;;;;;;5063449;28;20036;-73
2022/08/03 06:08:44;;;;;;;10.60;3.92;;;21.00;99.90;;;;;;5048206;28;20044;-73
2022/08/03 06:11:10;;;;;;;14.02;2.85;;;21.10;99.90;;;;;;5066538;28;20049;-73
2022/08/03 06:13:36;;;;;;;12.02;3.38;;;21.30;99.90;;;;;;5062629;28;20041;-72
2022/08/03 06:16:02;;;;;;;12.48;3.25;;;21.40;99.90;;;;;;5064775;28;20037;-72
2022/08/03 06:18:28;;;;;;;11.75;2.50;;;21.40;99.90;;;;;;5063718;28;20121;-72
2022/08/03 06:20:54;;;;;;;12.00;3.10;;;21.50;99.90;;;;;;5056859;28;20064;-72
2022/08/03 06:23:20;;;;;;;9.25;2.55;;;21.50;99.90;;;;;;5042429;28;20127;-72
2022/08/03 06:25:46;;;;;;;9.95;2.33;;;21.60;99.90;;;;;;5057957;28;20371;-72
2022/08/03 06:28:17;;;;;;;9.07;3.00;;;21.60;99.90;;;;;;5044338;28;20041;-73
2022/08/03 06:30:43;;;;;;;10.10;2.28;;;21.60;99.90;;;;;;5065967;28;20046;-73
2022/08/03 06:33:09;;;;;;;12.20;3.00;;;21.60;99.90;;;;;;5048139;28;20052;-73
2022/08/03 06:35:35;;;;;;;9.75;3.00;;;21.60;99.90;;;;;;5063548;28;20198;-72
2022/08/03 06:38:01;;;;;;;11.13;3.08;;;21.60;99.90;;;;;;5063467;28;20044;-73
2022/08/03 06:40:28;;;;;;;8.70;2.80;;;21.60;99.90;;;;;;5067863;28;20491;-73
2022/08/03 06:42:58;;;;;;;7.55;2.50;;;21.70;99.90;;;;;;5068763;28;20043;-73
2022/08/03 06:45:24;;;;;;;8.60;2.78;;;21.70;99.90;;;;;;5060281;28;20041;-73
2022/08/03 06:48:04;;;;;;;11.60;3.28;;;21.70;99.90;;;;;;5050918;28;20492;-74
2022/08/03 06:50:31;;;;;;;8.85;2.55;;;21.70;99.90;;;;;;5066057;28;20062;-72
2022/08/03 06:52:57;;;;;;;11.27;3.35;;;21.80;99.90;;;;;;5048546;28;20117;-72
2022/08/03 06:55:22;;;;;;;9.75;2.88;;;21.80;99.90;;;;;;5049425;28;20057;-72
2022/08/03 06:57:48;;;;;;;9.60;3.15;;;21.90;99.90;;;;;;5064462;28;20040;-72
2022/08/03 07:00:14;;;;;;;12.40;3.10;;;22.00;99.90;;;;;;5061312;28;20036;-72
2022/08/03 07:02:40;;;;;;;9.25;3.08;;;22.10;99.90;;;;;;5066855;28;20044;-71
2022/08/03 07:05:07;;;;;;;8.82;2.50;;;22.20;99.90;;;;;;5063589;28;20056;-71
2022/08/03 07:07:32;;;;;;;10.80;2.85;;;22.30;99.90;;;;;;5058508;28;20115;-71
2022/08/03 07:09:58;;;;;;;11.82;3.50;;;22.40;99.90;;;;;;5049769;28;20136;-72
2022/08/03 07:12:25;;;;;;;14.35;3.40;;;22.40;99.90;;;;;;5058023;28;20044;-72
2022/08/03 07:14:51;;;;;;;9.77;2.60;;;22.40;99.90;;;;;;5058383;28;20044;-72
2022/08/03 07:17:17;;;;;;;11.00;3.47;;;22.50;99.90;;;;;;5058757;28;20037;-72
2022/08/03 07:19:42;;;;;;;11.10;3.08;;;22.60;99.90;;;;;;5067428;28;20040;-72
2022/08/03 07:22:08;;;;;;;7.30;2.70;;;22.60;99.90;;;;;;5063199;28;20036;-72
2022/08/03 07:24:34;;;;;;;7.80;3.10;;;22.70;99.90;;;;;;5063845;28;20429;-72
2022/08/03 07:27:00;;;;;;;10.25;2.72;;;22.70;99.90;;;;;;5065317;28;20064;-72
2022/08/03 07:29:25;;;;;;;14.13;3.28;;;22.80;99.90;;;;;;5055941;28;20041;-72
2022/08/03 07:31:51;;;;;;;6.57;2.67;;;22.90;99.90;;;;;;5067286;28;20134;-72
2022/08/03 07:34:16;;;;;;;14.35;2.72;;;23.00;99.90;;;;;;5053879;28;20043;-72
2022/08/03 07:36:42;;;;;;;16.45;3.30;;;23.10;99.90;;;;;;5054202;28;20087;-72
2022/08/03 07:39:08;;;;;;;10.70;2.42;;;23.20;99.90;;;;;;5063779;28;20039;-72
2022/08/03 07:41:33;;;;;;;10.73;3.08;;;23.30;99.90;;;;;;5064444;28;20556;-72
2022/08/03 07:43:59;;;;;;;10.68;3.05;;;23.40;99.90;;;;;;5042129;28;20092;-73
2022/08/03 07:46:25;;;;;;;11.70;3.33;;;23.50;99.90;;;;;;5066248;28;20037;-73
2022/08/03 07:48:51;;;;;;;10.68;3.20;;;23.70;99.90;;;;;;5047597;28;20053;-73
2022/08/03 07:51:17;;;;;;;10.98;3.20;;;23.80;99.90;;;;;;5053449;28;20045;-72
2022/08/03 07:53:42;;;;;;;10.95;2.78;;;24.00;99.90;;;;;;5057170;28;20067;-72
2022/08/03 07:56:08;;;;;;;13.75;3.42;;;24.20;99.90;;;;;;5060838;28;20091;-72
2022/08/03 07:58:35;;;;;;;10.02;2.67;;;24.40;99.90;;;;;;5056533;28;20453;-72
2022/08/03 08:01:01;;;;;;;13.07;2.78;;;24.60;99.90;;;;;;5040295;28;20048;-72
2022/08/03 08:03:27;;;;;;;10.85;3.10;;;24.70;99.90;;;;;;5060356;28;20204;-72
2022/08/03 08:05:52;;;;;;;10.73;3.35;;;24.90;99.90;;;;;;5044456;28;20502;-73
2022/08/03 08:08:19;;;;;;;9.93;3.13;;;25.00;99.90;;;;;;5049146;28;20067;-72
2022/08/03 08:10:46;;;;;;;13.55;2.92;;;25.20;99.90;;;;;;5061617;28;20037;-72
2022/08/03 08:13:11;;;;;;;12.60;3.30;;;25.30;99.90;;;;;;5065414;28;20036;-72
2022/08/03 08:15:37;;;;;;;10.38;2.50;;;25.60;99.90;;;;;;5060793;28;20541;-72
2022/08/03 08:18:03;;;;;;;14.35;2.67;;;25.90;99.90;;;;;;5062613;28;20073;-72
2022/08/03 08:20:32;;;;;;;12.73;3.22;;;26.00;99.90;;;;;;5055244;28;20040;-72
2022/08/03 08:23:00;;;;;;;9.75;3.10;;;26.10;99.90;;;;;;5057264;28;20041;-74
2022/08/03 08:25:26;;;;;;;7.50;2.58;;;26.20;99.90;;;;;;5057768;28;20078;-73
2022/08/03 08:27:51;;;;;;;13.95;2.58;;;26.30;99.90;;;;;;5060624;28;20047;-73
2022/08/03 08:30:20;;;;;;;9.68;2.97;;;26.30;99.90;;;;;;5064686;28;20044;-73
2022/08/03 08:32:46;;;;;;;11.80;2.72;;;26.60;99.90;;;;;;5060783;28;20060;-73
2022/08/03 08:35:12;;;;;;;11.70;3.05;;;27.20;99.90;;;;;;5061135;28;20052;-73
2022/08/03 08:37:39;;;;;;;9.38;2.63;;;27.70;99.90;;;;;;5065514;28;20055;-73
2022/08/03 08:40:06;;;;;;;12.07;2.65;;;28.20;99.90;;;;;;5064645;28;20048;-74
2022/08/03 08:42:32;;;;;;;13.65;2.97;;;28.60;99.90;;;;;;5058309;28;20044;-73
2022/08/03 08:44:59;;;;;;;10.70;2.90;;;28.80;99.90;;;;;;5056630;28;20682;-73
2022/08/03 08:47:29;;;;;;;11.18;2.80;;;29.00;99.90;;;;;;5055485;28;20037;-74
2022/08/03 08:49:57;;;;;;;10.57;2.30;;;29.20;99.90;;;;;;5040870;28;20051;-73
2022/08/03 08:52:25;;;;;;;12.15;2.53;;;29.30;99.70;;;;;;5058942;28;20056;-73
2022/08/03 08:55:04;;;;;;;8.45;2.33;;;29.60;99.50;;;;;;5045382;28;20053;-73
2022/08/03 08:57:36;;;;;;;9.00;2.60;;;29.90;97.80;;;;;;5062764;28;20133;-74
2022/08/03 09:00:10;;;;;;;10.48;2.25;;;30.00;96.90;;;;;;5059808;28;20084;-74
2022/08/03 09:02:36;;;;;;;9.75;2.08;;;30.10;96.40;;;;;;5059885;28;20043;-74
2022/08/03 09:05:03;;;;;;;9.07;2.20;;;30.30;95.30;;;;;;5060617;28;20084;-74
2022/08/03 09:07:29;;;;;;;8.80;2.03;;;30.50;94.70;;;;;;5054931;28;20152;-74
2022/08/03 09:09:55;;;;;;;11.10;2.67;;;30.60;93.20;;;;;;5056057;28;20112;-74
2022/08/03 09:12:21;;;;;;;9.13;2.63;;;30.90;93.40;;;;;;5060909;28;20098;-74
2022/08/03 09:14:46;;;;;;;9.93;2.17;;;31.10;92.20;;;;;;5058654;28;20037;-75
2022/08/03 09:17:12;;;;;;;6.80;2.15;;;31.30;91.00;;;;;;5064327;28;20051;-74
2022/08/03 09:19:38;;;;;;;7.13;2.08;;;31.40;90.50;;;;;;5061606;28;20507;-74
2022/08/03 09:22:11;;;;;;;8.80;2.25;;;31.60;90.30;;;;;;5061397;28;20392;-75
2022/08/03 09:24:38;;;;;;;11.60;2.60;;;31.60;89.50;;;;;;5061756;28;20049;-74
2022/08/03 09:27:15;;;;;;;10.32;2.22;;;31.60;89.50;;;;;;5050837;28;20036;-74
2022/08/03 09:29:49;;;;;;;8.93;1.90;;;31.70;88.00;;;;;;5063966;28;20045;-74
2022/08/03 09:32:19;;;;;;;9.63;2.00;;;31.60;86.00;;;;;;5064736;28;20040;-73
2022/08/03 09:34:46;;;;;;;10.38;2.45;;;31.70;84.40;;;;;;5060295;28;20753;-76
2022/08/03 09:37:15;;;;;;;9.50;2.30;;;31.80;85.90;;;;;;5061213;28;20165;-75
2022/08/03 09:39:41;;;;;;;8.88;2.28;;;31.90;81.50;;;;;;5044038;28;20053;-73
2022/08/03 09:42:13;;;;;;;9.23;2.40;;;32.00;80.30;;;;;;5051691;28;20087;-74
2022/08/03 09:44:46;;;;;;;9.40;2.35;;;32.00;81.00;;;;;;5062848;28;20024;-75
2022/08/03 09:47:25;;;;;;;10.85;2.45;;;32.00;81.50;;;;;;5060349;28;20069;-73
2022/08/03 09:50:05;;;;;;;7.60;2.10;;;32.00;79.70;;;;;;5060244;28;20101;-74
2022/08/03 09:52:37;;;;;;;9.73;2.30;;;32.10;78.50;;;;;;5057604;28;20136;-74
2022/08/03 09:55:13;;;;;;;15.43;2.88;;;32.10;80.10;;;;;;5048610;28;20055;-74
2022/08/03 09:57:44;;;;;;;10.85;2.25;;;32.10;78.60;;;;;;5057833;28;20048;-74
2022/08/03 10:00:15;;;;;;;8.23;2.47;;;32.00;77.10;;;;;;5049400;28;20064;-73
2022/08/03 10:02:43;;;;;;;11.40;2.35;;;31.90;78.10;;;;;;5065831;28;20072;-73
2022/08/03 10:05:10;;;;;;;7.65;2.03;;;31.90;77.90;;;;;;5055636;28;20602;-73
2022/08/03 10:07:44;;;;;;;11.60;1.83;;;32.00;79.40;;;;;;5043593;28;20082;-73
2022/08/03 10:10:10;;;;;;;9.90;2.05;;;32.30;77.10;;;;;;5060456;28;20098;-73
2022/08/03 10:12:37;;;;;;;10.80;2.25;;;32.40;76.70;;;;;;5063179;28;20433;-74
2022/08/03 10:15:04;;;;;;;9.00;2.22;;;32.60;75.20;;;;;;5061065;28;20074;-73
2022/08/03 10:17:30;;;;;;;12.35;2.38;;;32.70;74.30;;;;;;5070439;28;20037;-75
2022/08/03 10:19:57;;;;;;;11.75;2.65;;;32.90;73.80;;;;;;5050852;28;20035;-72
2022/08/03 10:22:26;;;;;;;9.52;2.35;;;33.20;72.20;;;;;;5057323;28;20037;-73
2022/08/03 10:24:59;;;;;;;8.48;1.80;;;33.20;72.50;;;;;;5051805;28;20045;-73
2022/08/03 10:27:31;;;;;;;12.10;2.17;;;33.30;72.50;;;;;;5067269;28;20037;-74
2022/08/03 10:30:02;;;;;;;7.60;1.70;;;33.40;70.30;;;;;;5062513;28;20385;-74
2022/08/03 10:32:32;;;;;;;10.07;2.08;;;33.40;67.00;;;;;;5063262;28;20551;-72
2022/08/03 10:35:11;;;;;;;9.93;2.20;;;33.30;68.10;;;;;;5061486;28;20075;-74
2022/08/03 10:37:42;;;;;;;10.27;2.42;;;33.30;69.00;;;;;;5060182;28;20036;-74
2022/08/03 10:40:18;;;;;;;7.25;2.20;;;33.50;68.90;;;;;;5058563;28;20041;-73
2022/08/03 10:42:45;;;;;;;8.90;2.30;;;33.60;67.50;;;;;;5062943;28;20044;-74
2022/08/03 10:45:18;;;;;;;9.45;1.90;;;33.70;66.90;;;;;;5066911;28;20094;-73
2022/08/03 10:47:46;;;;;;;8.70;1.95;;;34.00;66.30;;;;;;5064246;28;20209;-74
2022/08/03 10:50:12;;;;;;;10.38;2.22;;;33.90;64.10;;;;;;5059834;28;20080;-73
2022/08/03 10:52:55;;;;;;;9.80;1.90;;;34.00;63.60;;;;;;5061923;28;20053;-74
2022/08/03 10:58:37;;;;;;;10.85;2.42;;;34.30;62.30;;;;;;5068008;28;20080;-75
2022/08/03 11:01:12;;;;;;;10.43;2.50;;;34.30;62.50;;;;;;5060815;28;20044;-73
2022/08/03 11:04:07;;;;;;;8.40;2.50;;;34.30;62.00;;;;;;5064837;28;20048;-72
2022/08/03 11:06:33;;;;;;;10.77;2.50;;;34.30;59.00;;;;;;5053725;28;20456;-74
2022/08/03 11:09:17;;;;;;;8.77;2.20;;;34.10;61.60;;;;;;5043320;28;20364;-74
2022/08/03 11:11:45;;;;;;;14.25;2.95;;;34.00;58.70;;;;;;5049178;28;20084;-74
2022/08/03 11:14:17;;;;;;;10.13;2.33;;;33.70;60.10;;;;;;5059169;28;20786;-72
2022/08/03 11:17:05;;;;;;;14.63;3.10;;;33.70;60.30;;;;;;5044673;28;20661;-72
2022/08/03 11:19:48;;;;;;;9.15;2.30;;;33.60;60.20;;;;;;5061171;28;20040;-74
2022/08/03 11:22:15;;;;;;;11.77;2.60;;;33.40;60.60;;;;;;5062728;28;20069;-73
2022/08/03 11:24:42;;;;;;;12.20;2.22;;;33.40;60.70;;;;;;5064821;28;20059;-73
2022/08/03 11:27:20;;;;;;;10.00;2.60;;;33.50;62.20;;;;;;5065576;28;20068;-73
2022/08/03 11:30:04;;;;;;;9.82;2.20;;;33.90;61.90;;;;;;5062180;28;20036;-73
2022/08/03 11:32:39;;;;;;;14.35;3.00;;;34.30;61.00;;;;;;5054629;28;20099;-73
2022/08/03 11:35:11;;;;;;;10.90;2.42;;;34.70;58.50;;;;;;5061558;28;20051;-73
2022/08/03 11:37:56;;;;;;;;;;;34.80;58.80;;;;;;5069383;28;20040;-73
2022/08/03 11:40:43;;;;;;;11.70;2.55;;;34.90;59.70;;;;;;5065438;28;20010;-74
2022/08/03 11:43:21;;;;;;;9.57;2.60;;;35.20;58.60;;;;;;5053376;28;20660;-73
2022/08/03 11:46:02;;;;;;;10.52;2.55;;;35.30;56.80;;;;;;5052190;28;20055;-73
2022/08/03 11:49:01;;;;;;;12.52;2.75;;;35.30;56.70;;;;;;5061581;28;20045;-74
2022/08/03 11:51:32;;;;;;;11.48;2.50;;;35.30;56.50;;;;;;5058056;28;20064;-73
2022/08/03 11:54:02;;;;;;;9.90;2.53;;;35.60;55.10;;;;;;5061689;28;20049;-73
2022/08/03 11:56:42;;;;;;;8.48;2.30;;;35.60;54.60;;;;;;5055527;28;20048;-72
2022/08/03 11:59:10;;;;;;;10.20;1.92;;;35.60;55.10;;;;;;5058094;28;20095;-73
2022/08/03 12:01:37;;;;;;;10.35;2.13;;;35.60;54.40;;;;;;5065973;28;20044;-74
2022/08/03 12:04:04;;;;;;;11.48;1.90;;;35.70;53.60;;;;;;5050110;28;20051;-75
2022/08/03 12:06:29;;;;;;;11.07;2.15;;;36.00;52.20;;;;;;5060182;28;20486;-74
2022/08/03 12:08:55;;;;;;;7.78;1.77;;;36.00;52.10;;;;;;5062059;28;20194;-74
2022/08/03 12:11:22;;;;;;;9.00;2.13;;;36.10;52.80;;;;;;5062857;28;20480;-73
2022/08/03 12:13:50;;;;;;;9.88;2.65;;;36.10;52.20;;;;;;5064011;28;20438;-73
2022/08/03 12:16:19;;;;;;;7.47;2.00;;;36.00;52.60;;;;;;5065485;28;20105;-74
2022/08/03 12:18:57;;;;;;;8.18;2.28;;;36.10;51.80;;;;;;5055091;28;20098;-73
2022/08/03 12:21:23;;;;;;;10.20;1.92;;;36.10;52.00;;;;;;5069771;28;20059;-73
2022/08/03 12:23:49;;;;;;;10.98;2.42;;;36.10;51.40;;;;;;5053344;28;20048;-73
2022/08/03 12:26:15;;;;;;;9.50;1.80;;;36.20;50.90;;;;;;5054687;28;20595;-73
2022/08/03 12:28:48;;;;;;;10.65;2.22;;;36.30;50.20;;;;;;5062934;28;20082;-73
2022/08/03 12:31:14;;;;;;;11.48;2.25;;;36.40;50.30;;;;;;5065906;28;20033;-73
2022/08/03 12:33:58;;;;;;;8.55;1.77;;;36.50;50.30;;;;;;5049024;28;20116;-74
2022/08/03 12:36:24;;;;;;;8.02;2.17;;;36.80;47.50;;;;;;5065048;28;20417;-74
2022/08/03 12:38:58;;;;;;;9.57;2.08;;;36.80;49.10;;;;;;5060322;28;20044;-74
2022/08/03 12:41:42;;;;;;;10.13;2.10;;;37.00;48.20;;;;;;5062753;28;20025;-73
2022/08/03 12:44:08;;;;;;;9.43;1.70;;;36.70;48.60;;;;;;5042249;28;20344;-73
2022/08/03 12:46:39;;;;;;;6.40;1.63;;;36.60;48.20;;;;;;5044321;28;20041;-73
2022/08/03 12:49:17;;;;;;;9.70;2.20;;;36.60;48.80;;;;;;5060160;28;20464;-73
2022/08/03 12:51:43;;;;;;;6.70;1.80;;;36.60;48.10;;;;;;5047856;28;20083;-73
2022/08/03 12:54:17;;;;;;;8.10;1.95;;;36.40;47.90;;;;;;5045956;28;20088;-73
2022/08/03 12:57:06;;;;;;;8.30;2.13;;;36.20;48.40;;;;;;5063024;28;20090;-73
2022/08/03 12:59:33;;;;;;;11.45;2.15;;;36.00;47.40;;;;;;5062330;28;20056;-73
2022/08/03 13:02:00;;;;;;;6.63;1.73;;;35.70;48.10;;;;;;5065219;28;20064;-73